Columbus, North Carolina
Current Conditions -  °F | °C
As of 10:15 AM on Sunday 21 Dec 2014 (Local Time) from KFQD Reporting Station
Overcast Overcast  
Wind Chill: 40°   Ceiling: 1900
Heat Index: 43°   Visibility: 7mi
Dew Point: 39°   Wind: 5mph
Humidity: 86%   Direction: 80°E
Pressure: 30.28"   Gusts: NA
Location:  35.25°N, 82.2°W
Report Text: KFQD 211515Z AUTO 08004KT 7SM OVC019 06/04 A3028 RMK AO2 T00610040
Loading
Personal Weather Stations






























Interactive Weather Map New forecast layout! Learn more

10-Day Weather Forecast

Advertisements
Track Severe Weather on mobile